Time;durP1;ratioP1;P1;durP2;ratioP2;P2;SDS_P1;SDS_P2;PMS_P1;PMS_P2;Temp;Humidity;BMP_temperature;BMP_pressure;BME280_temperature;BME280_humidity;BME280_pressure;Samples;Min_cycle;Max_cycle;Signal;HPM_P1;HPM_P2
2021/01/14 00:02:21;;;;;;;10.25;7.25;;;;;;;;;;5066654;28;20094;-54
2021/01/14 00:04:48;;;;;;;11.23;7.20;;;;;;;;;;5066016;28;20051;-51
2021/01/14 00:07:15;;;;;;;9.05;6.75;;;;;;;;;;5074890;28;20044;-68
2021/01/14 00:09:42;;;;;;;11.55;7.07;;;;;;;;;;5068279;28;20068;-47
2021/01/14 00:12:09;;;;;;;9.98;6.63;;;;;;;;;;5054969;28;20041;-53
2021/01/14 00:14:36;;;;;;;11.65;6.63;;;;;;;;;;5072214;28;20435;-47
2021/01/14 00:17:03;;;;;;;9.70;6.50;;;;;;;;;;5074226;28;20040;-49
2021/01/14 00:19:30;;;;;;;10.30;6.80;;;;;;;;;;5075969;28;20431;-69
2021/01/14 00:21:56;;;;;;;11.45;7.47;;;;;;;;;;5079067;28;20048;-66
2021/01/14 00:24:23;;;;;;;9.05;6.65;;;;;;;;;;5078609;28;20102;-65
2021/01/14 00:26:50;;;;;;;8.45;6.40;;;;;;;;;;5078560;28;20431;-54
2021/01/14 00:29:17;;;;;;;10.88;6.55;;;;;;;;;;5078788;28;20040;-64
2021/01/14 00:31:44;;;;;;;10.02;6.65;;;;;;;;;;5078746;28;20040;-69
2021/01/14 00:34:10;;;;;;;9.60;6.75;;;;;;;;;;5078093;28;20419;-69
2021/01/14 00:39:26;;;;;;;9.60;6.45;;;;;;;;;;5066351;28;20049;-65
2021/01/14 00:41:54;;;;;;;8.63;6.45;;;;;;;;;;5078867;28;20055;-67
2021/01/14 00:44:21;;;;;;;10.25;6.32;;;;;;;;;;5077474;28;20391;-58
2021/01/14 00:46:48;;;;;;;8.57;5.75;;;;;;;;;;5078123;28;20041;-58
2021/01/14 00:49:15;;;;;;;8.68;5.80;;;;;;;;;;5078405;28;20044;-59
2021/01/14 00:51:41;;;;;;;10.02;6.30;;;;;;;;;;5078596;28;20360;-69
2021/01/14 00:54:08;;;;;;;9.15;6.30;;;;;;;;;;5077912;28;20047;-68
2021/01/14 00:56:36;;;;;;;9.32;5.93;;;;;;;;;;5078231;28;20033;-61
2021/01/14 00:59:03;;;;;;;8.05;5.43;;;;;;;;;;5078248;28;20049;-45
2021/01/14 01:01:31;;;;;;;9.07;5.45;;;;;;;;;;5078184;28;20040;-49
2021/01/14 01:03:58;;;;;;;7.85;5.60;;;;;;;;;;5077850;28;20059;-50
2021/01/14 01:06:32;;;;;;;11.23;5.22;;;;;;;;;;5077318;28;20354;-47
2021/01/14 01:08:59;;;;;;;7.68;5.35;;;;;;;;;;5077326;28;20048;-54
2021/01/14 01:11:26;;;;;;;8.05;5.53;;;;;;;;;;5077994;28;20063;-45
2021/01/14 01:13:53;;;;;;;8.27;5.40;;;;;;;;;;5077757;28;20032;-69
2021/01/14 01:16:20;;;;;;;9.05;5.40;;;;;;;;;;5077562;28;20051;-73
2021/01/14 01:18:48;;;;;;;7.70;5.55;;;;;;;;;;5077849;28;20048;-68
2021/01/14 01:21:15;;;;;;;8.60;5.53;;;;;;;;;;5077803;28;20044;-69
2021/01/14 01:23:42;;;;;;;8.15;5.55;;;;;;;;;;5077527;28;20355;-70
2021/01/14 01:26:09;;;;;;;9.07;5.50;;;;;;;;;;5077645;28;20044;-67
2021/01/14 01:28:35;;;;;;;8.77;5.53;;;;;;;;;;5078142;28;20366;-67
2021/01/14 01:31:02;;;;;;;8.07;5.22;;;;;;;;;;5077422;28;20053;-63
2021/01/14 01:33:29;;;;;;;9.25;5.57;;;;;;;;;;5077530;28;20351;-57
2021/01/14 01:35:56;;;;;;;8.13;5.13;;;;;;;;;;5077553;28;20037;-66
2021/01/14 01:38:23;;;;;;;8.05;5.38;;;;;;;;;;5077613;28;20485;-70
2021/01/14 01:40:56;;;;;;;8.55;5.13;;;;;;;;;;5077747;28;20041;-69
2021/01/14 01:43:23;;;;;;;;;;;;;;;;;;5077799;28;20320;-55
2021/01/14 01:45:49;;;;;;;8.52;5.40;;;;;;;;;;5077533;28;19912;-69
2021/01/14 01:48:17;;;;;;;7.35;4.90;;;;;;;;;;5061762;28;20435;-68
2021/01/14 01:50:45;;;;;;;6.88;4.85;;;;;;;;;;5057402;28;20041;-69
2021/01/14 01:53:12;;;;;;;7.03;4.72;;;;;;;;;;5060683;28;20043;-69
2021/01/14 01:55:39;;;;;;;7.65;5.00;;;;;;;;;;5068578;28;20038;-45
2021/01/14 01:58:06;;;;;;;8.88;5.43;;;;;;;;;;5083816;28;20379;-59
2021/01/14 02:00:34;;;;;;;7.82;5.22;;;;;;;;;;5098018;28;20048;-69
2021/01/14 02:03:01;;;;;;;8.30;4.70;;;;;;;;;;5097356;28;20055;-46
2021/01/14 02:05:27;;;;;;;7.35;4.95;;;;;;;;;;5087119;28;20050;-45
2021/01/14 02:08:13;;;;;;;7.43;4.80;;;;;;;;;;5082674;28;20410;-45
2021/01/14 02:10:43;;;;;;;7.68;4.95;;;;;;;;;;5092633;28;20526;-47
2021/01/14 02:13:19;;;;;;;7.97;5.50;;;;;;;;;;5096802;28;20051;-46
2021/01/14 02:15:48;;;;;;;8.27;4.90;;;;;;;;;;5111349;28;20032;-53
2021/01/14 02:18:21;;;;;;;8.30;4.90;;;;;;;;;;5117367;28;20036;-47
2021/01/14 02:20:52;;;;;;;9.52;5.07;;;;;;;;;;5108570;28;20044;-69
2021/01/14 02:23:22;;;;;;;6.90;4.68;;;;;;;;;;5117252;28;20047;-69
2021/01/14 02:25:58;;;;;;;6.53;4.50;;;;;;;;;;5117189;28;20040;-49
2021/01/14 02:28:25;;;;;;;6.63;4.40;;;;;;;;;;5117295;28;20044;-69
2021/01/14 02:30:52;;;;;;;8.25;4.78;;;;;;;;;;5116180;28;20044;-69
2021/01/14 02:33:19;;;;;;;8.43;4.75;;;;;;;;;;5116838;28;20054;-68
2021/01/14 02:35:46;;;;;;;8.13;4.82;;;;;;;;;;5116839;28;20035;-69
2021/01/14 02:38:12;;;;;;;7.10;4.57;;;;;;;;;;5104734;28;20039;-46
2021/01/14 02:40:39;;;;;;;6.68;4.43;;;;;;;;;;5110038;28;20039;-46
2021/01/14 02:43:06;;;;;;;7.45;4.35;;;;;;;;;;5114546;28;20047;-51
2021/01/14 02:45:33;;;;;;;7.45;4.20;;;;;;;;;;5116795;28;20043;-45
2021/01/14 02:48:01;;;;;;;8.13;4.25;;;;;;;;;;5116758;28;20043;-46
2021/01/14 02:50:29;;;;;;;7.78;4.93;;;;;;;;;;5110794;28;20051;-64
2021/01/14 02:52:58;;;;;;;8.88;5.68;;;;;;;;;;5115949;28;20043;-68
2021/01/14 02:55:26;;;;;;;10.18;6.07;;;;;;;;;;5095680;28;20470;-69
2021/01/14 02:57:53;;;;;;;8.02;5.18;;;;;;;;;;5116631;28;20076;-69
2021/01/14 03:00:20;;;;;;;8.40;4.93;;;;;;;;;;5083455;28;20055;-71
2021/01/14 03:02:46;;;;;;;9.25;5.47;;;;;;;;;;5075785;28;20067;-69
2021/01/14 03:05:13;;;;;;;8.13;5.07;;;;;;;;;;5115884;27;21450;-69
2021/01/14 03:07:40;;;;;;;9.57;5.30;;;;;;;;;;5098009;28;20040;-69
2021/01/14 03:10:07;;;;;;;6.97;4.97;;;;;;;;;;5086631;28;20044;-69
2021/01/14 03:12:36;;;;;;;9.57;5.43;;;;;;;;;;5093266;28;20045;-69
2021/01/14 03:15:04;;;;;;;8.90;5.95;;;;;;;;;;5075780;28;20043;-69
2021/01/14 03:17:34;;;;;;;8.35;5.50;;;;;;;;;;5114170;27;20046;-69
2021/01/14 03:20:01;;;;;;;9.98;5.80;;;;;;;;;;5111052;28;20051;-69
2021/01/14 03:22:28;;;;;;;6.55;4.95;;;;;;;;;;5096201;28;20051;-70
2021/01/14 03:24:55;;;;;;;9.38;4.65;;;;;;;;;;5102815;28;20043;-45
2021/01/14 03:27:22;;;;;;;7.13;4.38;;;;;;;;;;5104534;28;20050;-68
2021/01/14 03:29:51;;;;;;;8.40;4.55;;;;;;;;;;5098815;28;20039;-69
2021/01/14 03:32:17;;;;;;;7.43;4.72;;;;;;;;;;5095599;28;20048;-68
2021/01/14 03:34:44;;;;;;;9.02;5.22;;;;;;;;;;5097593;28;20040;-67
2021/01/14 03:37:11;;;;;;;8.10;4.38;;;;;;;;;;5106951;28;20039;-69
2021/01/14 03:39:38;;;;;;;6.50;4.03;;;;;;;;;;5115953;28;20048;-69
2021/01/14 03:42:05;;;;;;;7.78;4.28;;;;;;;;;;5102260;28;20028;-71
2021/01/14 03:44:31;;;;;;;6.00;3.78;;;;;;;;;;5095883;28;20036;-62
2021/01/14 03:46:58;;;;;;;6.20;3.58;;;;;;;;;;5100069;28;20039;-67
2021/01/14 03:49:25;;;;;;;6.45;4.07;;;;;;;;;;5110075;28;20051;-70
2021/01/14 03:51:52;;;;;;;6.28;3.90;;;;;;;;;;5095618;28;20043;-69
2021/01/14 03:54:21;;;;;;;6.18;3.72;;;;;;;;;;5106774;28;20038;-46
2021/01/14 03:56:48;;;;;;;6.22;3.60;;;;;;;;;;5115027;28;20446;-68
2021/01/14 03:59:15;;;;;;;5.68;3.85;;;;;;;;;;5103457;28;20059;-68
2021/01/14 04:01:42;;;;;;;5.97;3.72;;;;;;;;;;5109428;28;20048;-57
2021/01/14 04:04:09;;;;;;;5.60;3.63;;;;;;;;;;5095421;28;20044;-45
2021/01/14 04:06:36;;;;;;;5.32;3.28;;;;;;;;;;5110110;28;20052;-68
2021/01/14 04:09:04;;;;;;;5.30;3.20;;;;;;;;;;5115340;28;20051;-70
2021/01/14 04:11:31;;;;;;;8.20;3.90;;;;;;;;;;5113337;28;20050;-53
2021/01/14 04:13:58;;;;;;;6.68;3.95;;;;;;;;;;5115190;28;20036;-65
2021/01/14 04:16:25;;;;;;;5.20;3.50;;;;;;;;;;5114451;28;20040;-47
2021/01/14 04:18:51;;;;;;;5.90;3.40;;;;;;;;;;5114843;28;20044;-47
2021/01/14 04:21:19;;;;;;;5.13;3.22;;;;;;;;;;5113210;28;20048;-68
2021/01/14 04:23:46;;;;;;;4.75;2.83;;;;;;;;;;5114605;28;20047;-45
2021/01/14 04:26:13;;;;;;;5.38;3.53;;;;;;;;;;5114909;28;20054;-45
2021/01/14 04:28:40;;;;;;;6.13;3.97;;;;;;;;;;5113872;28;20050;-58
2021/01/14 04:31:07;;;;;;;6.93;4.30;;;;;;;;;;5115069;28;20378;-46
2021/01/14 04:33:34;;;;;;;7.90;4.25;;;;;;;;;;5114414;28;20040;-69
2021/01/14 04:36:01;;;;;;;6.95;4.00;;;;;;;;;;5114507;28;20043;-69
2021/01/14 04:38:29;;;;;;;5.82;3.72;;;;;;;;;;5110737;28;20039;-68
2021/01/14 04:41:00;;;;;;;7.78;4.10;;;;;;;;;;5115456;28;20044;-69
2021/01/14 04:43:28;;;;;;;7.47;4.22;;;;;;;;;;5115358;28;20043;-69
2021/01/14 04:46:06;;;;;;;6.03;3.72;;;;;;;;;;5115099;28;20657;-69
2021/01/14 04:48:38;;;;;;;6.43;3.80;;;;;;;;;;5112047;28;20052;-62
2021/01/14 04:51:11;;;;;;;5.88;4.10;;;;;;;;;;5094970;28;20051;-68
2021/01/14 04:53:39;;;;;;;6.07;4.28;;;;;;;;;;5101293;28;20032;-64
2021/01/14 04:56:07;;;;;;;7.57;5.05;;;;;;;;;;5094969;28;20353;-69
2021/01/14 04:58:37;;;;;;;6.20;4.70;;;;;;;;;;5109867;28;20058;-69
2021/01/14 05:01:24;;;;;;;7.10;4.90;;;;;;;;;;5113982;28;20043;-69
2021/01/14 05:03:52;;;;;;;7.07;4.68;;;;;;;;;;5100781;28;20378;-68
2021/01/14 05:06:20;;;;;;;8.07;5.50;;;;;;;;;;5105865;28;20050;-63
2021/01/14 05:08:48;;;;;;;10.82;6.22;;;;;;;;;;5111418;28;20480;-69
2021/01/14 05:11:16;;;;;;;9.32;5.70;;;;;;;;;;5105206;28;20047;-67
2021/01/14 05:13:47;;;;;;;8.20;4.40;;;;;;;;;;5117557;28;20040;-67
2021/01/14 05:16:14;;;;;;;5.97;4.00;;;;;;;;;;5098449;28;20378;-69
2021/01/14 05:18:41;;;;;;;7.45;3.70;;;;;;;;;;5116499;28;20036;-64
2021/01/14 05:21:08;;;;;;;4.75;3.63;;;;;;;;;;5103203;28;20043;-57
2021/01/14 05:23:35;;;;;;;6.03;3.97;;;;;;;;;;5098201;28;20267;-66
2021/01/14 05:26:03;;;;;;;10.40;7.22;;;;;;;;;;5098007;28;20374;-66
2021/01/14 05:28:30;;;;;;;7.78;5.18;;;;;;;;;;5098137;28;20040;-57
2021/01/14 05:31:16;;;;;;;7.22;4.90;;;;;;;;;;5112358;28;20039;-46
2021/01/14 05:33:44;;;;;;;8.23;5.30;;;;;;;;;;5118493;28;20036;-64
2021/01/14 05:36:11;;;;;;;10.48;6.45;;;;;;;;;;5112475;28;20040;-68
2021/01/14 05:38:37;;;;;;;7.30;4.45;;;;;;;;;;5097781;28;20043;-48
2021/01/14 05:41:19;;;;;;;6.97;4.55;;;;;;;;;;5102208;28;20043;-47
2021/01/14 05:43:57;;;;;;;8.15;5.03;;;;;;;;;;5118224;28;20048;-46
2021/01/14 05:46:25;;;;;;;9.55;6.07;;;;;;;;;;5118002;28;20035;-47
2021/01/14 05:48:53;;;;;;;9.00;5.30;;;;;;;;;;5118200;28;20046;-46
2021/01/14 05:51:20;;;;;;;8.00;5.68;;;;;;;;;;5117659;28;20365;-60
2021/01/14 05:53:55;;;;;;;8.23;5.13;;;;;;;;;;5118176;28;20039;-68
2021/01/14 05:56:27;;;;;;;8.27;4.93;;;;;;;;;;5117999;28;20362;-66
2021/01/14 05:58:55;;;;;;;8.60;5.53;;;;;;;;;;5117769;28;20055;-69
2021/01/14 06:01:24;;;;;;;7.55;4.85;;;;;;;;;;5115502;28;20047;-67
2021/01/14 06:03:51;;;;;;;8.00;5.07;;;;;;;;;;5117945;28;20047;-67
2021/01/14 06:06:18;;;;;;;6.78;4.32;;;;;;;;;;5098327;28;20357;-58
2021/01/14 06:08:45;;;;;;;7.53;4.80;;;;;;;;;;5097396;28;20048;-47
2021/01/14 06:11:22;;;;;;;6.22;4.43;;;;;;;;;;5101677;28;20431;-68
2021/01/14 06:13:49;;;;;;;11.13;6.60;;;;;;;;;;5117936;28;20039;-50
2021/01/14 06:16:16;;;;;;;6.97;4.80;;;;;;;;;;5117096;28;20438;-53
2021/01/14 06:19:02;;;;;;;7.03;4.30;;;;;;;;;;5097436;28;20466;-68
2021/01/14 06:21:48;;;;;;;7.15;4.10;;;;;;;;;;5103794;28;20043;-70
2021/01/14 06:24:17;;;;;;;6.93;3.92;;;;;;;;;;5117494;28;20097;-68
2021/01/14 06:26:44;;;;;;;7.65;4.50;;;;;;;;;;5117536;28;20047;-47
2021/01/14 06:29:41;;;;;;;5.22;3.80;;;;;;;;;;5116943;28;20074;-64
2021/01/14 06:32:07;;;;;;;7.43;3.60;;;;;;;;;;5099996;28;20051;-67
2021/01/14 06:34:34;;;;;;;5.85;4.18;;;;;;;;;;5117098;28;20437;-68
2021/01/14 06:37:12;;;;;;;6.93;4.63;;;;;;;;;;5117024;28;20354;-65
2021/01/14 06:39:41;;;;;;;6.45;4.65;;;;;;;;;;5117040;28;20365;-67
2021/01/14 06:42:29;;;;;;;5.70;3.80;;;;;;;;;;5115811;28;20043;-68
2021/01/14 06:44:59;;;;;;;5.53;3.90;;;;;;;;;;5112391;28;20047;-69
2021/01/14 06:47:26;;;;;;;5.80;4.20;;;;;;;;;;5096522;28;20044;-64
2021/01/14 06:50:01;;;;;;;5.93;4.78;;;;;;;;;;5096626;28;20047;-64
2021/01/14 06:52:28;;;;;;;11.23;5.70;;;;;;;;;;5099055;28;20050;-64
2021/01/14 06:54:55;;;;;;;6.88;4.38;;;;;;;;;;5116737;28;20484;-66
2021/01/14 06:57:25;;;;;;;5.70;4.18;;;;;;;;;;5116656;28;20039;-63
2021/01/14 06:59:53;;;;;;;8.90;5.75;;;;;;;;;;5116450;28;20044;-64
2021/01/14 07:02:29;;;;;;;8.40;5.07;;;;;;;;;;5107726;28;20469;-64
2021/01/14 07:05:04;;;;;;;7.13;4.53;;;;;;;;;;5116403;28;20365;-67
2021/01/14 07:07:47;;;;;;;8.13;4.82;;;;;;;;;;5116797;28;20054;-50
2021/01/14 07:10:15;;;;;;;7.03;4.95;;;;;;;;;;5116408;28;20047;-46
2021/01/14 07:12:43;;;;;;;9.32;6.25;;;;;;;;;;5116312;28;20043;-69
2021/01/14 07:15:17;;;;;;;8.45;5.53;;;;;;;;;;5116180;28;20035;-50
2021/01/14 07:17:47;;;;;;;6.13;4.50;;;;;;;;;;5116396;28;20476;-60
2021/01/14 07:20:14;;;;;;;7.07;4.68;;;;;;;;;;5108412;28;20040;-63
2021/01/14 07:22:41;;;;;;;7.30;4.68;;;;;;;;;;5099265;28;20039;-68
2021/01/14 07:25:10;;;;;;;6.78;4.78;;;;;;;;;;5116146;28;20040;-69
2021/01/14 07:27:37;;;;;;;6.95;4.30;;;;;;;;;;5116156;28;20109;-66
2021/01/14 07:30:05;;;;;;;5.80;3.53;;;;;;;;;;5115410;28;20040;-63
2021/01/14 07:32:51;;;;;;;7.15;3.85;;;;;;;;;;5115877;28;20365;-65
2021/01/14 07:35:38;;;;;;;5.50;3.97;;;;;;;;;;5111512;28;20043;-62
2021/01/14 07:38:05;;;;;;;5.75;3.65;;;;;;;;;;5095854;28;20040;-66
2021/01/14 07:40:33;;;;;;;6.55;3.40;;;;;;;;;;5095771;28;20526;-68
2021/01/14 07:43:00;;;;;;;5.43;3.75;;;;;;;;;;5101017;28;20047;-66
2021/01/14 07:45:28;;;;;;;6.10;3.70;;;;;;;;;;5115862;28;20047;-66
2021/01/14 07:47:56;;;;;;;5.85;4.00;;;;;;;;;;5105098;28;20055;-47
2021/01/14 07:50:24;;;;;;;5.57;3.10;;;;;;;;;;5095470;28;20051;-49
2021/01/14 07:52:52;;;;;;;5.43;2.70;;;;;;;;;;5099147;28;20066;-63
2021/01/14 07:55:37;;;;;;;4.82;3.13;;;;;;;;;;5115591;28;20044;-45
2021/01/14 07:58:04;;;;;;;7.47;3.95;;;;;;;;;;5115943;28;20043;-46
2021/01/14 08:00:31;;;;;;;3.80;2.35;;;;;;;;;;5101414;28;20036;-64
2021/01/14 08:03:07;;;;;;;4.72;2.80;;;;;;;;;;5100374;28;20043;-53
2021/01/14 08:05:41;;;;;;;6.65;3.60;;;;;;;;;;5105575;28;20047;-62
2021/01/14 08:08:27;;;;;;;5.75;2.95;;;;;;;;;;5102364;28;20038;-58
2021/01/14 08:11:08;;;;;;;4.10;2.45;;;;;;;;;;5110955;28;20048;-68
2021/01/14 08:13:55;;;;;;;3.95;2.55;;;;;;;;;;5107620;28;20051;-69
2021/01/14 08:16:34;;;;;;;7.18;3.97;;;;;;;;;;5115016;28;20477;-70
2021/01/14 08:19:20;;;;;;;5.50;3.67;;;;;;;;;;5115550;28;20346;-73
2021/01/14 08:21:50;;;;;;;6.78;4.13;;;;;;;;;;5115575;28;20362;-76
2021/01/14 08:24:37;;;;;;;4.80;2.60;;;;;;;;;;5115297;28;20058;-70
2021/01/14 08:27:08;;;;;;;5.82;3.20;;;;;;;;;;5113213;28;20465;-75
2021/01/14 08:29:41;;;;;;;5.35;3.83;;;;;;;;;;5103790;28;20039;-56
2021/01/14 08:32:43;;;;;;;12.20;7.78;;;;;;;;;;5111435;28;20765;-56
2021/01/14 08:35:13;;;;;;;8.57;5.95;;;;;;;;;;5052505;28;20041;-79
2021/01/14 08:37:43;;;;;;;10.43;6.32;;;;;;;;;;5093802;28;20040;-63
2021/01/14 08:40:14;;;;;;;6.47;4.50;;;;;;;;;;5115260;28;20051;-65
2021/01/14 08:42:41;;;;;;;11.52;7.13;;;;;;;;;;5119312;28;20054;-74
2021/01/14 08:45:14;;;;;;;16.88;12.05;;;;;;;;;;5113647;28;20366;-70
2021/01/14 08:47:54;;;;;;;17.75;11.65;;;;;;;;;;5099025;28;20327;-64
2021/01/14 08:50:40;;;;;;;20.90;13.77;;;;;;;;;;5119225;28;20039;-63
2021/01/14 08:53:26;;;;;;;19.35;13.77;;;;;;;;;;5103005;28;20059;-69
2021/01/14 08:55:59;;;;;;;22.50;16.23;;;;;;;;;;5114134;28;20040;-57
2021/01/14 08:58:38;;;;;;;24.35;16.02;;;;;;;;;;5119257;28;20047;-56
2021/01/14 09:01:06;;;;;;;22.15;15.15;;;;;;;;;;5137920;27;20039;-57
2021/01/14 09:03:34;;;;;;;23.27;16.10;;;;;;;;;;5131579;27;20039;-56
2021/01/14 09:06:02;;;;;;;20.60;15.10;;;;;;;;;;5118787;28;20044;-57
2021/01/14 09:08:29;;;;;;;24.40;16.25;;;;;;;;;;5118718;28;20492;-56
2021/01/14 09:10:56;;;;;;;26.42;17.77;;;;;;;;;;5118825;28;20078;-58
2021/01/14 09:13:28;;;;;;;24.58;18.20;;;;;;;;;;5118676;28;20035;-56
2021/01/14 09:15:55;;;;;;;25.45;19.05;;;;;;;;;;5100249;28;20040;-56
2021/01/14 09:18:52;;;;;;;29.27;19.02;;;;;;;;;;5098352;28;20043;-57
2021/01/14 09:21:18;;;;;;;26.45;19.25;;;;;;;;;;5081477;28;20469;-57
2021/01/14 09:23:45;;;;;;;29.73;18.40;;;;;;;;;;5102871;27;20054;-46
2021/01/14 09:26:18;;;;;;;27.60;18.20;;;;;;;;;;5117795;28;20048;-60
2021/01/14 09:28:52;;;;;;;25.15;17.98;;;;;;;;;;5099421;28;20435;-57
2021/01/14 09:31:22;;;;;;;24.00;17.20;;;;;;;;;;5097993;28;20066;-58
2021/01/14 09:33:50;;;;;;;23.35;15.05;;;;;;;;;;5106773;28;20044;-52
2021/01/14 09:36:18;;;;;;;23.65;15.68;;;;;;;;;;5118020;28;20051;-55
2021/01/14 09:38:46;;;;;;;22.80;16.77;;;;;;;;;;5118365;28;20043;-60
2021/01/14 09:41:18;;;;;;;23.02;15.60;;;;;;;;;;5118295;28;20458;-58
2021/01/14 09:43:45;;;;;;;24.23;16.90;;;;;;;;;;5111603;28;20040;-55
2021/01/14 09:46:13;;;;;;;24.50;16.65;;;;;;;;;;5097733;28;20035;-58
2021/01/14 09:48:40;;;;;;;26.52;16.10;;;;;;;;;;5097734;28;20043;-57
2021/01/14 09:51:11;;;;;;;22.80;14.75;;;;;;;;;;5079388;28;20070;-56
2021/01/14 09:53:45;;;;;;;28.25;15.73;;;;;;;;;;5104127;28;20044;-56
2021/01/14 09:56:19;;;;;;;21.02;14.68;;;;;;;;;;5117922;28;20039;-49
2021/01/14 09:58:48;;;;;;;21.02;13.98;;;;;;;;;;5117770;28;20055;-54
2021/01/14 10:01:17;;;;;;;20.30;14.35;;;;;;;;;;5101359;28;20055;-52
2021/01/14 10:03:47;;;;;;;21.90;14.15;;;;;;;;;;5104806;28;20043;-49
2021/01/14 10:06:15;;;;;;;24.50;16.35;;;;;;;;;;5117908;28;20046;-53
2021/01/14 10:08:46;;;;;;;28.92;20.60;;;;;;;;;;5117856;28;20040;-53
2021/01/14 10:11:12;;;;;;;31.45;22.45;;;;;;;;;;5117645;28;20043;-48
2021/01/14 10:13:49;;;;;;;34.08;23.48;;;;;;;;;;5117419;28;20036;-50
2021/01/14 10:16:18;;;;;;;29.48;21.77;;;;;;;;;;5097146;28;20047;-54
2021/01/14 10:18:45;;;;;;;29.65;20.60;;;;;;;;;;5097429;28;20044;-53
2021/01/14 10:21:14;;;;;;;30.35;21.05;;;;;;;;;;5096954;28;20051;-53
2021/01/14 10:23:41;;;;;;;28.63;19.35;;;;;;;;;;5103031;28;20373;-47
2021/01/14 10:26:07;;;;;;;28.90;17.88;;;;;;;;;;5117354;28;20056;-51
2021/01/14 10:28:44;;;;;;;20.60;15.65;;;;;;;;;;5099479;28;20044;-47
2021/01/14 10:31:11;;;;;;;25.73;16.95;;;;;;;;;;5096779;28;20043;-52
2021/01/14 10:33:38;;;;;;;23.85;15.45;;;;;;;;;;5109958;28;20323;-56
2021/01/14 10:36:05;;;;;;;22.65;15.77;;;;;;;;;;5118644;27;20043;-56
2021/01/14 10:38:31;;;;;;;22.10;15.32;;;;;;;;;;5115081;28;20040;-60
2021/01/14 10:40:58;;;;;;;20.70;15.50;;;;;;;;;;5117039;28;20457;-52
2021/01/14 10:43:29;;;;;;;25.90;15.98;;;;;;;;;;5112116;28;20043;-48
2021/01/14 10:45:56;;;;;;;23.50;16.40;;;;;;;;;;5116943;28;20043;-56
2021/01/14 10:48:23;;;;;;;27.00;15.85;;;;;;;;;;5117010;28;20039;-56
2021/01/14 10:50:54;;;;;;;21.20;16.20;;;;;;;;;;5116784;28;20046;-56
2021/01/14 10:53:30;;;;;;;27.27;16.30;;;;;;;;;;5116730;28;20394;-56
2021/01/14 10:56:10;;;;;;;22.50;16.80;;;;;;;;;;5116780;28;20349;-55
2021/01/14 10:58:38;;;;;;;23.38;15.27;;;;;;;;;;5116753;28;20059;-50
2021/01/14 11:01:18;;;;;;;24.33;16.63;;;;;;;;;;5116907;28;20036;-55
2021/01/14 11:03:45;;;;;;;17.52;12.55;;;;;;;;;;5115748;28;20039;-51
2021/01/14 11:06:12;;;;;;;23.13;14.63;;;;;;;;;;5116546;28;20035;-53
2021/01/14 11:08:44;;;;;;;20.70;13.82;;;;;;;;;;5096937;28;20051;-48
2021/01/14 11:11:29;;;;;;;21.58;13.20;;;;;;;;;;5096241;28;20032;-46
2021/01/14 11:13:56;;;;;;;16.02;10.48;;;;;;;;;;5101881;28;20031;-49
2021/01/14 11:16:27;;;;;;;8.40;6.18;;;;;;;;;;5116411;28;20040;-47
2021/01/14 11:18:55;;;;;;;4.22;3.03;;;;;;;;;;5116557;28;20050;-56
2021/01/14 11:21:32;;;;;;;5.47;3.45;;;;;;;;;;5116366;28;20040;-55
2021/01/14 11:23:59;;;;;;;7.93;4.63;;;;;;;;;;5116121;28;20050;-57
2021/01/14 11:26:26;;;;;;;7.45;4.65;;;;;;;;;;5116227;28;20035;-55
2021/01/14 11:29:11;;;;;;;9.18;6.20;;;;;;;;;;5123015;28;20028;-55
2021/01/14 11:31:38;;;;;;;10.02;5.78;;;;;;;;;;5116166;28;20350;-54
2021/01/14 11:34:05;;;;;;;7.80;4.30;;;;;;;;;;5115759;28;20039;-56
2021/01/14 11:36:32;;;;;;;11.82;6.50;;;;;;;;;;5116102;28;20031;-56
2021/01/14 11:38:59;;;;;;;6.53;4.25;;;;;;;;;;5116026;28;20040;-56
2021/01/14 11:41:26;;;;;;;11.30;5.63;;;;;;;;;;5116193;28;20035;-55
2021/01/14 11:43:52;;;;;;;7.88;3.35;;;;;;;;;;5115683;28;20055;-57
2021/01/14 11:46:22;;;;;;;5.57;3.03;;;;;;;;;;5115951;28;20047;-55
2021/01/14 11:48:49;;;;;;;4.50;2.88;;;;;;;;;;5116065;28;20046;-49
2021/01/14 11:51:16;;;;;;;11.23;6.20;;;;;;;;;;5115791;28;20035;-53
2021/01/14 11:53:43;;;;;;;8.15;3.95;;;;;;;;;;5115664;28;20039;-47
2021/01/14 11:56:09;;;;;;;8.60;4.13;;;;;;;;;;5115698;28;20440;-47
2021/01/14 11:58:37;;;;;;;8.05;3.40;;;;;;;;;;5115827;28;20039;-56
2021/01/14 12:01:04;;;;;;;5.75;3.65;;;;;;;;;;5110784;28;20044;-47
2021/01/14 12:03:33;;;;;;;5.45;3.80;;;;;;;;;;5096998;28;20439;-54
2021/01/14 12:05:59;;;;;;;3.70;2.40;;;;;;;;;;5115964;28;20461;-56
2021/01/14 12:08:26;;;;;;;5.00;2.50;;;;;;;;;;5096449;28;20036;-55
2021/01/14 12:10:53;;;;;;;4.63;2.72;;;;;;;;;;5095739;28;20051;-55
2021/01/14 12:13:20;;;;;;;4.43;2.92;;;;;;;;;;5095576;28;20051;-56
2021/01/14 12:15:47;;;;;;;6.47;2.38;;;;;;;;;;5118543;28;20043;-51
2021/01/14 12:18:13;;;;;;;3.78;2.13;;;;;;;;;;5120116;28;20035;-55
2021/01/14 12:20:40;;;;;;;4.72;2.80;;;;;;;;;;5107726;28;20044;-56
2021/01/14 12:23:07;;;;;;;4.75;3.60;;;;;;;;;;5099334;28;20389;-51
2021/01/14 12:25:34;;;;;;;10.38;6.10;;;;;;;;;;5099210;28;20052;-55
2021/01/14 12:28:01;;;;;;;7.25;4.38;;;;;;;;;;5119763;28;20046;-55
2021/01/14 12:30:27;;;;;;;5.00;3.80;;;;;;;;;;5119430;28;20043;-47
2021/01/14 12:32:54;;;;;;;6.50;3.17;;;;;;;;;;5119438;28;20334;-50
2021/01/14 12:35:21;;;;;;;5.65;3.20;;;;;;;;;;5118094;28;20055;-49
2021/01/14 12:37:48;;;;;;;7.78;5.28;;;;;;;;;;5099046;28;20039;-55
2021/01/14 12:40:15;;;;;;;10.70;5.97;;;;;;;;;;5099317;28;20434;-49
2021/01/14 12:42:41;;;;;;;8.38;5.75;;;;;;;;;;5099359;28;20513;-52
2021/01/14 12:45:08;;;;;;;8.77;4.75;;;;;;;;;;5112519;28;20048;-50
2021/01/14 12:47:35;;;;;;;10.80;6.50;;;;;;;;;;5115824;28;20044;-57
2021/01/14 12:50:02;;;;;;;7.90;4.68;;;;;;;;;;5098799;28;20043;-48
2021/01/14 12:52:30;;;;;;;6.70;4.28;;;;;;;;;;5098855;28;20051;-49
2021/01/14 12:54:57;;;;;;;7.85;5.00;;;;;;;;;;5110459;28;20064;-47
2021/01/14 12:57:24;;;;;;;8.90;5.10;;;;;;;;;;5118999;28;20039;-46
2021/01/14 12:59:51;;;;;;;7.90;4.28;;;;;;;;;;5118945;28;20036;-55
2021/01/14 13:02:17;;;;;;;5.05;3.30;;;;;;;;;;5119088;28;20043;-55
2021/01/14 13:04:44;;;;;;;5.88;3.55;;;;;;;;;;5111134;28;20044;-46
2021/01/14 13:07:11;;;;;;;8.35;5.15;;;;;;;;;;5118790;28;20047;-57
2021/01/14 13:09:38;;;;;;;9.45;5.18;;;;;;;;;;5118724;28;20358;-54
2021/01/14 13:12:05;;;;;;;13.82;8.70;;;;;;;;;;5119120;28;20051;-54
2021/01/14 13:14:31;;;;;;;7.88;5.00;;;;;;;;;;5117162;28;20469;-56
2021/01/14 13:16:58;;;;;;;7.28;4.95;;;;;;;;;;5098452;28;20063;-55
2021/01/14 13:19:26;;;;;;;5.75;3.10;;;;;;;;;;5098356;28;20050;-56
2021/01/14 13:21:53;;;;;;;5.88;3.60;;;;;;;;;;5098359;28;20048;-54
2021/01/14 13:24:20;;;;;;;7.72;4.10;;;;;;;;;;5103738;28;20457;-54
2021/01/14 13:26:47;;;;;;;10.45;5.38;;;;;;;;;;5117836;28;20339;-55
2021/01/14 13:29:15;;;;;;;6.43;3.95;;;;;;;;;;5118295;28;20051;-54
2021/01/14 13:31:44;;;;;;;8.50;4.50;;;;;;;;;;5118492;28;20366;-52
2021/01/14 13:34:11;;;;;;;6.10;3.10;;;;;;;;;;5118221;28;20485;-49
2021/01/14 13:36:38;;;;;;;7.15;3.47;;;;;;;;;;5118247;28;20032;-55
2021/01/14 13:39:09;;;;;;;7.05;3.17;;;;;;;;;;5117732;28;20358;-52
2021/01/14 13:41:36;;;;;;;9.32;4.30;;;;;;;;;;5098192;28;20044;-55
2021/01/14 13:44:04;;;;;;;5.70;3.42;;;;;;;;;;5100410;28;20046;-53
2021/01/14 13:46:31;;;;;;;4.20;2.75;;;;;;;;;;5117934;28;20039;-49
2021/01/14 13:48:59;;;;;;;5.57;3.13;;;;;;;;;;5097796;28;20044;-50
2021/01/14 13:51:32;;;;;;;6.20;3.40;;;;;;;;;;5097573;28;20367;-47
2021/01/14 13:53:59;;;;;;;;;;;;;;;;;;5082130;28;20043;-49
2021/01/14 13:56:26;;;;;;;7.53;3.92;;;;;;;;;;5101638;28;19916;-53
2021/01/14 13:58:54;;;;;;;6.47;4.03;;;;;;;;;;5098034;28;20056;-55
2021/01/14 14:01:30;;;;;;;9.40;4.70;;;;;;;;;;5098766;28;20039;-53
2021/01/14 14:03:58;;;;;;;6.20;4.10;;;;;;;;;;5114476;27;20057;-56
2021/01/14 14:06:35;;;;;;;8.50;4.72;;;;;;;;;;5115268;28;20046;-58
2021/01/14 14:09:12;;;;;;;9.40;4.47;;;;;;;;;;5116808;28;20055;-60
2021/01/14 14:11:42;;;;;;;8.48;4.93;;;;;;;;;;5115062;28;20054;-55
2021/01/14 14:14:13;;;;;;;7.03;3.95;;;;;;;;;;5114233;28;20077;-57
2021/01/14 14:16:41;;;;;;;10.75;4.80;;;;;;;;;;5117403;28;20040;-55
2021/01/14 14:19:08;;;;;;;10.57;4.68;;;;;;;;;;5117155;28;20473;-46
2021/01/14 14:21:35;;;;;;;6.57;3.95;;;;;;;;;;5116713;28;20036;-56
2021/01/14 14:24:05;;;;;;;6.35;3.78;;;;;;;;;;5116442;28;20040;-57
2021/01/14 14:26:33;;;;;;;5.55;3.97;;;;;;;;;;5116596;28;20470;-60
2021/01/14 14:29:01;;;;;;;6.32;4.38;;;;;;;;;;5116733;28;20039;-56
2021/01/14 14:31:28;;;;;;;6.13;4.30;;;;;;;;;;5116504;28;20326;-54
2021/01/14 14:33:55;;;;;;;6.53;4.10;;;;;;;;;;5113360;28;20051;-56
2021/01/14 14:36:26;;;;;;;6.60;4.35;;;;;;;;;;5116553;28;20043;-57
2021/01/14 14:38:53;;;;;;;6.97;4.75;;;;;;;;;;5115365;28;20047;-57
2021/01/14 14:41:22;;;;;;;7.57;5.15;;;;;;;;;;5116769;28;20039;-61
2021/01/14 14:43:51;;;;;;;7.53;4.97;;;;;;;;;;5115272;28;20044;-55
2021/01/14 14:46:20;;;;;;;8.00;4.30;;;;;;;;;;5116072;28;20350;-58
2021/01/14 14:48:48;;;;;;;15.98;9.65;;;;;;;;;;5098692;28;20442;-56
2021/01/14 14:51:19;;;;;;;9.18;5.32;;;;;;;;;;5112358;28;20039;-52
2021/01/14 14:53:52;;;;;;;8.95;5.32;;;;;;;;;;5112634;28;20048;-51
2021/01/14 14:56:19;;;;;;;9.23;5.18;;;;;;;;;;5116037;28;20461;-61